Time;durP1;ratioP1;P1;durP2;ratioP2;P2;SDS_P1;SDS_P2;PMS_P1;PMS_P2;Temp;Humidity;BMP_temperature;BMP_pressure;BME280_temperature;BME280_humidity;BME280_pressure;Samples;Min_cycle;Max_cycle;Signal;HPM_P1;HPM_P2
2023/02/16 00:00:25;;;;;;;12.52;8.43;;;11.40;81.60;;;;;;6223270;23;20008;-80
2023/02/16 00:02:51;;;;;;;10.18;7.25;;;11.40;81.60;;;;;;6223292;23;20008;-81
2023/02/16 00:05:28;;;;;;;12.25;7.40;;;11.40;81.70;;;;;;6249453;23;20464;-80
2023/02/16 00:07:55;;;;;;;9.93;6.90;;;11.40;81.70;;;;;;6222732;23;20004;-80
2023/02/16 00:10:21;;;;;;;11.20;7.93;;;11.40;81.60;;;;;;6222796;23;20091;-80
2023/02/16 00:15:31;;;;;;;11.48;7.60;;;11.40;81.70;;;;;;6249365;23;20478;-80
2023/02/16 00:17:59;;;;;;;10.55;7.55;;;11.40;81.70;;;;;;6249354;23;20000;-80
2023/02/16 00:20:25;;;;;;;11.50;7.72;;;11.40;81.80;;;;;;6221895;23;20024;-80
2023/02/16 00:22:51;;;;;;;11.50;7.95;;;11.40;81.90;;;;;;6249516;23;20004;-80
2023/02/16 00:25:16;;;;;;;10.20;6.85;;;11.40;81.80;;;;;;6221472;23;20197;-80
2023/02/16 00:27:42;;;;;;;10.73;7.43;;;11.40;82.50;;;;;;6248793;23;20079;-81
2023/02/16 00:30:21;;;;;;;10.85;7.60;;;11.40;81.90;;;;;;6249122;23;20022;-80
2023/02/16 00:32:46;;;;;;;11.75;8.55;;;11.40;81.80;;;;;;6248195;23;20012;-80
2023/02/16 00:35:17;;;;;;;10.48;7.43;;;11.30;82.00;;;;;;6222713;23;20043;-80
2023/02/16 00:37:42;;;;;;;11.45;7.45;;;11.30;81.90;;;;;;6224060;23;20086;-80
2023/02/16 00:40:10;;;;;;;11.45;7.43;;;11.30;81.80;;;;;;6223661;23;20382;-80
2023/02/16 00:42:36;;;;;;;11.98;7.68;;;11.30;82.00;;;;;;6223766;23;20000;-80
2023/02/16 00:45:01;;;;;;;10.93;8.00;;;11.30;81.90;;;;;;6247478;23;20335;-79
2023/02/16 00:47:40;;;;;;;11.65;8.27;;;11.30;82.00;;;;;;6221303;23;20004;-80
2023/02/16 00:50:15;;;;;;;11.27;8.05;;;11.30;82.00;;;;;;6223458;23;20011;-80
2023/02/16 00:52:42;;;;;;;11.05;7.63;;;11.30;82.00;;;;;;6250446;23;20000;-80
2023/02/16 00:55:10;;;;;;;11.73;8.10;;;11.30;81.90;;;;;;6249568;23;20027;-80
2023/02/16 00:57:46;;;;;;;11.18;7.90;;;11.30;82.00;;;;;;6249679;23;20004;-80
2023/02/16 01:00:16;;;;;;;12.43;8.45;;;11.30;82.00;;;;;;6222718;23;20004;-80
2023/02/16 01:02:43;;;;;;;12.30;7.95;;;11.30;82.00;;;;;;6222494;23;20009;-80
2023/02/16 01:05:09;;;;;;;10.63;7.80;;;11.30;81.90;;;;;;6247137;23;20000;-78
2023/02/16 01:13:04;;;;;;;12.90;9.10;;;11.30;81.90;;;;;;6248405;23;20011;-80
2023/02/16 01:15:30;;;;;;;11.30;8.05;;;11.30;81.90;;;;;;6247892;23;20004;-80
2023/02/16 01:17:55;;;;;;;10.88;7.80;;;11.30;82.00;;;;;;6221454;23;20030;-80
2023/02/16 01:20:24;;;;;;;11.82;7.55;;;11.30;82.00;;;;;;6220947;23;20434;-80
2023/02/16 01:22:50;;;;;;;12.20;8.25;;;11.30;82.00;;;;;;6221631;23;20007;-80
2023/02/16 01:25:16;;;;;;;11.85;8.43;;;11.30;82.00;;;;;;6248146;23;20433;-81
2023/02/16 01:27:43;;;;;;;11.57;8.30;;;11.30;82.00;;;;;;6221205;23;20004;-81
2023/02/16 01:30:19;;;;;;;11.70;8.05;;;11.30;82.10;;;;;;6247968;23;20000;-80
2023/02/16 01:32:50;;;;;;;10.70;8.00;;;11.30;82.00;;;;;;6220975;23;20091;-81
2023/02/16 01:35:20;;;;;;;;;;;11.30;82.10;;;;;;6221870;23;20004;-80
2023/02/16 01:37:46;;;;;;;11.20;7.95;;;11.30;82.10;;;;;;6247643;23;19906;-80
2023/02/16 01:40:29;;;;;;;11.65;8.07;;;11.30;82.20;;;;;;6220404;23;20007;-80
2023/02/16 01:43:06;;;;;;;11.55;8.18;;;11.20;82.10;;;;;;6248398;23;20004;-80
2023/02/16 01:45:36;;;;;;;11.68;8.05;;;11.30;82.20;;;;;;6221088;23;20023;-80
2023/02/16 01:48:05;;;;;;;11.80;8.45;;;11.20;82.10;;;;;;6247582;23;20007;-80
2023/02/16 01:50:48;;;;;;;12.95;8.32;;;11.30;82.20;;;;;;6220771;23;20320;-80
2023/02/16 01:53:41;;;;;;;12.80;8.75;;;11.30;82.20;;;;;;6248024;23;20004;-80
2023/02/16 01:56:31;;;;;;;12.20;8.40;;;11.30;82.20;;;;;;6220202;23;20040;-80
2023/02/16 01:59:03;;;;;;;12.15;8.57;;;11.20;82.20;;;;;;6220345;23;20458;-80
2023/02/16 02:01:42;;;;;;;11.50;7.95;;;11.20;82.10;;;;;;6219299;23;20011;-80
2023/02/16 02:07:32;;;;;;;13.13;8.82;;;11.20;82.20;;;;;;6228286;23;20000;-80
2023/02/16 02:10:01;;;;;;;;;;;11.20;82.20;;;;;;6221831;23;20000;-80
2023/02/16 02:12:36;;;;;;;12.80;9.13;;;11.20;82.20;;;;;;6249136;23;19899;-80
2023/02/16 02:15:01;;;;;;;13.10;8.57;;;11.20;82.30;;;;;;6249354;23;20004;-79
2023/02/16 02:17:28;;;;;;;11.93;8.27;;;11.20;82.20;;;;;;6248892;23;20450;-80
2023/02/16 02:20:05;;;;;;;12.70;9.35;;;11.20;82.30;;;;;;6221972;23;20011;-78
2023/02/16 02:23:32;;;;;;;12.52;8.38;;;11.20;82.30;;;;;;6248889;23;20007;-80
2023/02/16 02:26:35;;;;;;;13.70;9.00;;;11.20;82.30;;;;;;6248447;23;19996;-80
2023/02/16 02:29:03;;;;;;;13.60;9.15;;;11.20;82.20;;;;;;6221296;23;20401;-80
2023/02/16 02:32:06;;;;;;;12.23;8.13;;;11.20;82.20;;;;;;6248228;23;20028;-80
2023/02/16 02:34:54;;;;;;;12.63;8.73;;;11.20;82.20;;;;;;6221105;23;20439;-80
2023/02/16 02:37:35;;;;;;;12.10;8.50;;;11.20;82.20;;;;;;6221576;23;20304;-80
2023/02/16 02:40:12;;;;;;;12.60;9.30;;;11.20;82.20;;;;;;6248319;23;20031;-78
2023/02/16 02:42:50;;;;;;;12.75;9.02;;;11.20;82.30;;;;;;6220847;23;20019;-79
2023/02/16 02:45:19;;;;;;;11.88;8.32;;;11.20;82.30;;;;;;6220709;23;20079;-80
2023/02/16 02:47:46;;;;;;;13.10;9.43;;;11.20;82.30;;;;;;6221152;23;19996;-78
2023/02/16 02:50:39;;;;;;;12.88;9.20;;;11.20;82.30;;;;;;6247993;23;20076;-80
2023/02/16 02:53:11;;;;;;;13.48;9.60;;;11.20;82.30;;;;;;6220889;23;20039;-80
2023/02/16 03:01:15;;;;;;;12.70;9.20;;;11.20;82.30;;;;;;6248171;23;20050;-80
2023/02/16 03:03:49;;;;;;;13.25;9.27;;;11.20;82.30;;;;;;6247452;23;20004;-80
2023/02/16 03:06:21;;;;;;;12.85;9.07;;;11.20;82.30;;;;;;6251451;23;20075;-81
2023/02/16 03:08:52;;;;;;;13.00;9.32;;;11.20;82.30;;;;;;6225132;23;20011;-80
2023/02/16 03:14:08;;;;;;;13.20;9.07;;;11.20;82.40;;;;;;6251101;23;20459;-81
2023/02/16 03:16:39;;;;;;;12.02;8.88;;;11.20;82.30;;;;;;6251117;23;20007;-81
2023/02/16 03:30:11;;;;;;;13.38;9.45;;;11.10;82.30;;;;;;6249221;23;20007;-79
2023/02/16 03:32:38;;;;;;;13.40;9.82;;;11.20;82.40;;;;;;6248975;23;20431;-80
2023/02/16 03:35:04;;;;;;;11.90;8.75;;;11.20;82.40;;;;;;6222705;23;20351;-80
2023/02/16 03:37:30;;;;;;;13.38;9.80;;;11.20;82.30;;;;;;6222706;23;20008;-80
2023/02/16 03:42:48;;;;;;;13.55;9.48;;;11.20;82.40;;;;;;6249769;23;20449;-80
2023/02/16 03:45:13;;;;;;;12.48;9.07;;;11.20;82.40;;;;;;6249241;23;20011;-80
2023/02/16 03:47:39;;;;;;;12.10;8.90;;;11.20;82.40;;;;;;6248720;23;20004;-80
2023/02/16 03:50:05;;;;;;;12.00;8.82;;;11.20;82.40;;;;;;6249005;23;20000;-80
2023/02/16 03:52:31;;;;;;;12.27;9.05;;;11.20;82.40;;;;;;6248620;23;20004;-80
2023/02/16 03:54:56;;;;;;;13.02;9.10;;;11.20;82.40;;;;;;6224501;23;20075;-80
2023/02/16 03:57:21;;;;;;;13.32;9.52;;;11.20;82.40;;;;;;6249895;23;20473;-80
2023/02/16 03:59:47;;;;;;;12.93;9.18;;;11.20;82.40;;;;;;6251116;23;20008;-80
2023/02/16 04:02:13;;;;;;;14.13;9.43;;;11.20;82.50;;;;;;6251093;23;20035;-81
2023/02/16 04:04:38;;;;;;;12.90;9.85;;;11.10;82.40;;;;;;6224143;23;19997;-80
2023/02/16 04:07:04;;;;;;;13.77;9.30;;;11.20;82.40;;;;;;6222738;23;20023;-80
2023/02/16 04:09:29;;;;;;;12.27;8.98;;;11.20;82.40;;;;;;6221826;23;20000;-80
2023/02/16 04:14:38;;;;;;;14.25;9.75;;;11.20;82.40;;;;;;6250572;23;20034;-80
2023/02/16 04:17:04;;;;;;;14.02;9.75;;;11.20;82.40;;;;;;6222905;23;20056;-80
2023/02/16 04:19:29;;;;;;;13.02;9.88;;;11.10;82.40;;;;;;6249190;23;20000;-80
2023/02/16 04:21:55;;;;;;;12.98;9.38;;;11.10;82.40;;;;;;6249036;23;20398;-78
2023/02/16 04:24:20;;;;;;;13.07;9.32;;;11.10;82.30;;;;;;6222110;23;20000;-80
2023/02/16 04:26:48;;;;;;;12.63;9.30;;;11.10;82.40;;;;;;6222073;23;20003;-80
2023/02/16 04:29:14;;;;;;;13.52;9.55;;;11.10;82.30;;;;;;6248822;23;20006;-80
2023/02/16 04:31:39;;;;;;;12.90;9.25;;;11.10;82.40;;;;;;6248664;23;20020;-80
2023/02/16 04:34:05;;;;;;;13.82;9.90;;;11.10;82.40;;;;;;6248947;23;20008;-81
2023/02/16 04:36:30;;;;;;;12.52;9.25;;;11.10;82.40;;;;;;6220978;23;20497;-80
2023/02/16 04:38:56;;;;;;;12.50;9.40;;;11.10;82.50;;;;;;6248571;23;20004;-80
2023/02/16 04:41:21;;;;;;;14.98;10.68;;;11.10;82.50;;;;;;6220990;23;20112;-80
2023/02/16 04:43:47;;;;;;;13.95;9.77;;;11.10;82.50;;;;;;6221285;23;20062;-80
2023/02/16 04:46:12;;;;;;;13.13;9.70;;;11.10;82.50;;;;;;6219991;23;20004;-80
2023/02/16 04:48:38;;;;;;;13.80;9.65;;;11.10;82.50;;;;;;6247341;23;19996;-81
2023/02/16 04:51:04;;;;;;;13.60;10.15;;;11.10;82.50;;;;;;6221104;23;20487;-81
2023/02/16 04:53:29;;;;;;;14.38;9.93;;;11.10;82.50;;;;;;6220510;23;20439;-80
2023/02/16 04:55:55;;;;;;;13.93;10.00;;;11.10;82.50;;;;;;6246966;23;20027;-80
2023/02/16 04:58:20;;;;;;;13.48;10.00;;;11.10;82.50;;;;;;6219459;23;20418;-80
2023/02/16 05:00:46;;;;;;;13.05;9.57;;;11.10;82.50;;;;;;6219643;23;20036;-80
2023/02/16 05:03:11;;;;;;;12.80;9.05;;;11.10;82.50;;;;;;6246258;23;20004;-80
2023/02/16 05:05:37;;;;;;;13.90;9.65;;;11.10;82.50;;;;;;6246171;23;20028;-80
2023/02/16 05:08:03;;;;;;;14.55;10.02;;;11.10;82.50;;;;;;6247613;23;19996;-79
2023/02/16 05:10:28;;;;;;;13.07;9.65;;;11.10;82.50;;;;;;6247440;23;20000;-79
2023/02/16 05:15:38;;;;;;;14.50;9.88;;;11.10;82.60;;;;;;6246808;23;20349;-80
2023/02/16 05:18:04;;;;;;;14.00;10.23;;;11.10;82.50;;;;;;6220333;23;20036;-80
2023/02/16 05:23:14;;;;;;;13.93;10.05;;;11.10;82.60;;;;;;6247775;23;20011;-80
2023/02/16 05:25:39;;;;;;;12.32;9.35;;;11.10;82.60;;;;;;6247142;23;20446;-80
2023/02/16 05:28:05;;;;;;;14.45;10.38;;;11.10;82.60;;;;;;6219142;23;20004;-81
2023/02/16 05:30:31;;;;;;;15.10;9.98;;;11.10;82.60;;;;;;6216675;23;20347;-80
2023/02/16 05:32:56;;;;;;;13.18;9.63;;;11.10;82.60;;;;;;6215409;23;20008;-79
2023/02/16 05:35:22;;;;;;;14.50;9.93;;;11.10;82.60;;;;;;6215669;23;20004;-79
2023/02/16 05:37:47;;;;;;;14.57;9.90;;;11.10;82.60;;;;;;6213562;23;20451;-78
2023/02/16 05:40:13;;;;;;;14.30;10.45;;;11.10;82.60;;;;;;6214417;23;20012;-79
2023/02/16 05:42:39;;;;;;;14.13;10.05;;;11.10;82.60;;;;;;6240682;23;20461;-76
2023/02/16 05:45:04;;;;;;;14.18;10.10;;;11.10;82.60;;;;;;6242705;23;20054;-75
2023/02/16 05:47:30;;;;;;;13.82;10.07;;;11.10;82.50;;;;;;6243075;23;20000;-79
2023/02/16 05:49:55;;;;;;;15.20;10.52;;;11.10;82.50;;;;;;6215870;23;20032;-77
2023/02/16 05:52:21;;;;;;;13.75;10.10;;;11.10;82.50;;;;;;6242709;23;20018;-77
2023/02/16 05:54:46;;;;;;;15.50;10.88;;;11.10;82.60;;;;;;6215387;23;20437;-76
2023/02/16 05:57:12;;;;;;;15.43;10.57;;;11.10;82.50;;;;;;6215684;23;20083;-79
2023/02/16 05:59:37;;;;;;;14.63;10.57;;;11.10;82.60;;;;;;6212852;23;20004;-78
2023/02/16 06:02:03;;;;;;;15.18;10.55;;;11.10;82.60;;;;;;6215343;23;20093;-78
2023/02/16 06:04:28;;;;;;;14.40;10.52;;;11.10;82.60;;;;;;6215918;23;20134;-78
2023/02/16 06:06:54;;;;;;;14.80;10.05;;;11.00;82.50;;;;;;6215978;23;20000;-78
2023/02/16 06:09:20;;;;;;;13.77;10.48;;;11.10;82.50;;;;;;6214993;23;20012;-77
2023/02/16 06:11:45;;;;;;;14.38;10.40;;;11.10;82.50;;;;;;6215453;23;20027;-75
2023/02/16 06:14:13;;;;;;;15.00;11.10;;;11.00;82.40;;;;;;6241000;23;20030;-78
2023/02/16 06:16:41;;;;;;;14.70;10.65;;;11.10;82.50;;;;;;6212868;23;20347;-77
2023/02/16 06:19:07;;;;;;;16.35;11.68;;;11.10;82.50;;;;;;6213698;23;20062;-77
2023/02/16 06:21:33;;;;;;;14.65;10.65;;;11.00;82.40;;;;;;6239672;23;20027;-78
2023/02/16 06:23:59;;;;;;;14.98;10.85;;;11.10;82.50;;;;;;6214656;23;20094;-76
2023/02/16 06:26:25;;;;;;;14.27;10.00;;;11.10;82.50;;;;;;6216106;23;20489;-78
2023/02/16 06:28:51;;;;;;;14.98;10.40;;;11.10;82.50;;;;;;6243326;23;20064;-81
2023/02/16 06:31:17;;;;;;;14.15;10.05;;;11.10;82.50;;;;;;6214319;23;20387;-80
2023/02/16 06:33:42;;;;;;;14.38;10.15;;;11.00;82.40;;;;;;6215496;23;20011;-77
2023/02/16 06:36:08;;;;;;;16.42;11.10;;;11.10;82.40;;;;;;6215279;23;20015;-79
2023/02/16 06:38:34;;;;;;;14.98;10.30;;;11.00;82.40;;;;;;6214180;23;20015;-78
2023/02/16 06:40:59;;;;;;;14.93;10.65;;;11.10;82.40;;;;;;6240784;23;20549;-77
2023/02/16 06:43:25;;;;;;;15.38;11.38;;;11.00;82.40;;;;;;6214191;23;20004;-77
2023/02/16 06:45:50;;;;;;;15.00;10.50;;;11.00;82.30;;;;;;6212249;23;20007;-78
2023/02/16 06:48:16;;;;;;;15.15;10.57;;;11.00;82.30;;;;;;6212661;23;20079;-78
2023/02/16 06:50:41;;;;;;;15.10;10.77;;;11.00;82.30;;;;;;6238957;23;20071;-78
2023/02/16 06:53:07;;;;;;;14.18;10.73;;;11.00;82.30;;;;;;6211063;23;20012;-78
2023/02/16 06:55:35;;;;;;;14.05;10.30;;;11.10;82.30;;;;;;6209852;23;20090;-78
2023/02/16 06:58:05;;;;;;;14.02;10.57;;;11.00;82.30;;;;;;6210300;23;20014;-76
2023/02/16 07:00:31;;;;;;;13.65;9.90;;;11.10;82.20;;;;;;6237731;23;20008;-77
2023/02/16 07:02:57;;;;;;;15.13;10.13;;;11.10;82.20;;;;;;6211017;23;20008;-78
2023/02/16 07:05:22;;;;;;;14.93;10.63;;;11.10;82.10;;;;;;6210087;23;20004;-79
2023/02/16 07:07:48;;;;;;;15.20;10.98;;;11.10;82.00;;;;;;6211654;23;20008;-76
2023/02/16 07:10:13;;;;;;;13.80;10.63;;;11.10;82.00;;;;;;6237949;23;20428;-79
2023/02/16 07:12:39;;;;;;;16.02;11.02;;;11.10;81.90;;;;;;6211934;23;20441;-78
2023/02/16 07:15:05;;;;;;;14.45;10.82;;;11.10;81.90;;;;;;6238930;23;20019;-78
2023/02/16 07:17:31;;;;;;;15.05;11.00;;;11.10;81.90;;;;;;6210904;23;20008;-79
2023/02/16 07:19:56;;;;;;;14.18;10.70;;;11.10;81.80;;;;;;6209450;23;20465;-79
2023/02/16 07:22:22;;;;;;;14.15;10.60;;;11.10;81.80;;;;;;6209888;23;20063;-79
2023/02/16 07:24:47;;;;;;;15.48;10.90;;;11.10;81.80;;;;;;6237015;23;20058;-79
2023/02/16 07:27:13;;;;;;;14.40;10.68;;;11.10;81.80;;;;;;6237508;23;20000;-77
2023/02/16 07:29:38;;;;;;;15.68;10.95;;;11.20;81.80;;;;;;6235984;23;20000;-78
2023/02/16 07:32:04;;;;;;;16.08;11.38;;;11.10;81.80;;;;;;6211025;23;20107;-78
2023/02/16 07:34:29;;;;;;;14.93;10.93;;;11.10;81.70;;;;;;6212211;23;20012;-81
2023/02/16 07:36:55;;;;;;;13.77;10.60;;;11.20;81.70;;;;;;6239332;23;20000;-79
2023/02/16 07:39:21;;;;;;;14.65;11.25;;;11.20;81.70;;;;;;6212902;23;20008;-79
2023/02/16 07:41:46;;;;;;;15.27;11.15;;;11.20;81.60;;;;;;6201789;23;20103;-78
2023/02/16 07:44:12;;;;;;;13.48;10.25;;;11.20;81.50;;;;;;6205992;23;20011;-79
2023/02/16 07:46:37;;;;;;;15.77;11.45;;;11.20;80.90;;;;;;6208730;23;20085;-78
2023/02/16 07:49:03;;;;;;;14.07;10.52;;;11.20;81.10;;;;;;6206982;23;20037;-80
2023/02/16 07:51:30;;;;;;;14.00;10.00;;;11.20;81.20;;;;;;6207020;23;20024;-79
2023/02/16 07:53:57;;;;;;;14.82;10.82;;;11.20;81.30;;;;;;6206378;23;20005;-80
2023/02/16 07:56:28;;;;;;;14.88;10.93;;;11.20;81.20;;;;;;6207363;23;19997;-78
2023/02/16 07:58:58;;;;;;;14.90;10.93;;;11.20;81.20;;;;;;6207847;23;20009;-78
2023/02/16 08:01:24;;;;;;;13.98;10.48;;;11.20;81.30;;;;;;6205274;23;20350;-77
2023/02/16 08:03:50;;;;;;;14.65;10.45;;;11.20;81.20;;;;;;6206308;23;20410;-80
2023/02/16 08:06:16;;;;;;;14.68;10.82;;;11.20;81.30;;;;;;6206474;23;20196;-80
2023/02/16 08:08:42;;;;;;;13.98;9.95;;;11.20;81.40;;;;;;6206608;23;20439;-78
2023/02/16 08:11:34;;;;;;;14.30;10.50;;;11.20;81.40;;;;;;6206226;23;20012;-78
2023/02/16 08:14:00;;;;;;;15.50;11.13;;;11.20;81.40;;;;;;6203301;23;20335;-78
2023/02/16 08:16:27;;;;;;;14.18;10.65;;;11.20;81.40;;;;;;6206410;23;20008;-78
2023/02/16 08:18:55;;;;;;;15.13;11.00;;;11.20;81.40;;;;;;6205983;23;20052;-78
2023/02/16 08:21:23;;;;;;;30.00;16.92;;;11.20;81.60;;;;;;6206348;23;20035;-79
2023/02/16 08:23:59;;;;;;;35.60;19.33;;;11.10;77.40;;;;;;6206369;23;20008;-79
2023/02/16 08:26:27;;;;;;;27.35;17.95;;;10.90;76.30;;;;;;6205659;23;20076;-79
2023/02/16 08:28:55;;;;;;;32.35;18.40;;;10.90;76.20;;;;;;6206137;23;20031;-78
2023/02/16 08:31:33;;;;;;;29.17;17.85;;;10.90;76.60;;;;;;6232097;23;20004;-77
2023/02/16 08:34:00;;;;;;;28.40;17.80;;;11.00;76.70;;;;;;6206988;23;20005;-78
2023/02/16 08:36:33;;;;;;;25.83;17.77;;;11.00;76.90;;;;;;6209806;23;20070;-78
2023/02/16 08:39:00;;;;;;;26.95;17.90;;;11.00;77.70;;;;;;6209217;23;20087;-79
2023/02/16 08:41:31;;;;;;;26.75;17.13;;;11.10;77.50;;;;;;6226953;23;20417;-78
2023/02/16 08:43:57;;;;;;;23.90;16.30;;;11.10;77.80;;;;;;6213205;23;20000;-79
2023/02/16 08:46:23;;;;;;;29.90;16.08;;;11.10;78.10;;;;;;6210665;23;20007;-79
2023/02/16 08:48:48;;;;;;;23.58;16.52;;;11.10;78.40;;;;;;6211249;23;20034;-79
2023/02/16 08:51:16;;;;;;;24.02;16.77;;;11.10;78.60;;;;;;6237559;23;20032;-78
2023/02/16 08:53:42;;;;;;;24.92;16.13;;;11.10;78.80;;;;;;6210215;23;20391;-78
2023/02/16 08:56:09;;;;;;;25.10;16.25;;;11.00;79.10;;;;;;6237208;23;20015;-78
2023/02/16 08:58:36;;;;;;;23.73;15.85;;;11.10;79.10;;;;;;6238358;23;20292;-78
2023/02/16 09:01:09;;;;;;;27.17;16.27;;;11.10;79.30;;;;;;6210457;23;20004;-78
2023/02/16 09:03:37;;;;;;;22.45;16.23;;;11.10;79.30;;;;;;6210239;23;20008;-78
2023/02/16 09:06:04;;;;;;;22.13;15.38;;;11.10;79.30;;;;;;6210696;23;20011;-78
2023/02/16 09:08:31;;;;;;;23.73;15.82;;;11.20;79.50;;;;;;6237390;23;20008;-78
2023/02/16 09:11:04;;;;;;;23.23;15.57;;;11.20;80.10;;;;;;6237161;23;20295;-78
2023/02/16 09:13:31;;;;;;;24.70;15.30;;;11.20;79.70;;;;;;6237014;23;20063;-77
2023/02/16 09:16:08;;;;;;;20.98;14.82;;;11.20;79.60;;;;;;6210247;23;20007;-78
2023/02/16 09:18:35;;;;;;;22.50;15.07;;;11.20;79.70;;;;;;6211629;23;20018;-79
2023/02/16 09:21:16;;;;;;;23.63;15.55;;;11.20;79.80;;;;;;6211991;23;20091;-77
2023/02/16 09:23:43;;;;;;;;;;;11.20;79.90;;;;;;6239042;23;20008;-77
2023/02/16 09:26:09;;;;;;;22.33;14.98;;;11.20;79.80;;;;;;6212128;23;19907;-78
2023/02/16 09:28:39;;;;;;;20.88;14.98;;;11.20;79.90;;;;;;6212852;23;20004;-79
2023/02/16 09:31:09;;;;;;;19.50;14.88;;;11.20;79.90;;;;;;6212364;23;20004;-77
2023/02/16 09:33:35;;;;;;;23.40;15.30;;;11.20;80.00;;;;;;6212152;23;20008;-78
2023/02/16 09:36:04;;;;;;;22.33;15.23;;;11.20;79.90;;;;;;6238761;23;20057;-78
2023/02/16 09:38:30;;;;;;;20.42;14.95;;;11.20;80.10;;;;;;6212260;23;20039;-77
2023/02/16 09:40:56;;;;;;;20.40;14.15;;;11.30;80.10;;;;;;6238656;23;20016;-79
2023/02/16 09:43:47;;;;;;;21.08;14.93;;;11.30;80.10;;;;;;6214588;23;20004;-77
2023/02/16 09:46:16;;;;;;;19.92;14.63;;;11.20;80.60;;;;;;6212580;23;20004;-79
2023/02/16 09:48:46;;;;;;;20.42;14.55;;;11.30;80.30;;;;;;6211623;23;20484;-78
2023/02/16 09:51:19;;;;;;;20.85;14.38;;;11.30;80.30;;;;;;6211669;23;20016;-78
2023/02/16 09:53:49;;;;;;;20.52;14.20;;;11.30;80.30;;;;;;6212053;23;20038;-79
2023/02/16 09:56:37;;;;;;;18.73;14.13;;;11.30;80.40;;;;;;6211438;23;20099;-79
2023/02/16 09:59:09;;;;;;;19.80;13.63;;;11.30;80.30;;;;;;6238178;23;20004;-78
2023/02/16 10:01:50;;;;;;;19.27;13.93;;;11.30;80.30;;;;;;6211568;23;20011;-78
2023/02/16 10:04:22;;;;;;;;;;;11.30;80.30;;;;;;6239252;23;20027;-79
2023/02/16 10:07:02;;;;;;;19.52;14.00;;;11.30;80.30;;;;;;6211261;23;19907;-78
2023/02/16 10:09:30;;;;;;;18.70;13.20;;;11.30;80.40;;;;;;6211737;23;20099;-78
2023/02/16 10:12:08;;;;;;;19.98;13.75;;;11.30;80.50;;;;;;6237930;23;20457;-78
2023/02/16 10:14:49;;;;;;;19.70;13.32;;;11.30;80.40;;;;;;6211799;23;20362;-79
2023/02/16 10:17:27;;;;;;;19.20;13.85;;;11.30;80.30;;;;;;6210793;23;20012;-78
2023/02/16 10:20:18;;;;;;;17.35;13.40;;;11.30;80.50;;;;;;6209871;23;20019;-76
2023/02/16 10:22:56;;;;;;;18.30;12.75;;;11.30;80.50;;;;;;6209537;23;20087;-78
2023/02/16 10:25:48;;;;;;;19.33;13.88;;;11.30;80.60;;;;;;6238373;23;20327;-78
2023/02/16 10:28:28;;;;;;;17.60;13.18;;;11.20;80.50;;;;;;6238707;23;20000;-77
2023/02/16 10:31:02;;;;;;;19.98;12.98;;;11.30;80.50;;;;;;6238766;23;20004;-76
2023/02/16 10:33:57;;;;;;;16.95;12.85;;;11.30;80.50;;;;;;6237389;23;20011;-77
2023/02/16 10:36:27;;;;;;;18.63;13.35;;;11.30;80.60;;;;;;6210277;23;20008;-78
2023/02/16 10:39:01;;;;;;;20.42;14.48;;;11.30;80.70;;;;;;6210309;23;20008;-77
2023/02/16 10:41:33;;;;;;;20.13;13.75;;;11.30;80.70;;;;;;6204710;23;20043;-76
2023/02/16 10:44:10;;;;;;;18.48;13.65;;;11.30;80.70;;;;;;6207637;23;20004;-78
2023/02/16 10:46:43;;;;;;;18.48;13.55;;;11.30;80.60;;;;;;6207454;23;20264;-78
2023/02/16 10:49:13;;;;;;;17.67;12.68;;;11.20;80.70;;;;;;6207417;23;20250;-77
2023/02/16 10:51:42;;;;;;;18.30;13.20;;;11.30;80.70;;;;;;6205178;23;20294;-77
2023/02/16 10:54:17;;;;;;;20.67;13.30;;;11.30;80.70;;;;;;6206929;23;20527;-77
2023/02/16 10:57:00;;;;;;;17.90;13.05;;;11.30;80.70;;;;;;6208311;23;20005;-79
2023/02/16 10:59:43;;;;;;;18.40;13.63;;;11.30;80.60;;;;;;6208411;23;20003;-79
2023/02/16 11:02:17;;;;;;;16.80;12.65;;;11.30;80.70;;;;;;6207879;23;20008;-78
2023/02/16 11:04:46;;;;;;;19.35;13.60;;;11.30;80.50;;;;;;6208438;23;20009;-79
2023/02/16 11:07:21;;;;;;;17.85;12.55;;;11.40;80.50;;;;;;6206144;23;20001;-78
2023/02/16 11:09:52;;;;;;;17.25;12.82;;;11.40;80.30;;;;;;6206219;23;20351;-78
2023/02/16 11:12:38;;;;;;;18.23;12.70;;;11.40;80.30;;;;;;6207747;23;20043;-80
2023/02/16 11:15:20;;;;;;;16.33;12.25;;;11.40;80.20;;;;;;6205630;23;20004;-77
2023/02/16 11:18:19;;;;;;;16.80;12.20;;;11.50;80.20;;;;;;6206106;23;20070;-77
2023/02/16 11:20:44;;;;;;;16.80;12.45;;;11.50;80.10;;;;;;6208465;23;20101;-78
2023/02/16 11:23:21;;;;;;;16.27;12.07;;;11.50;80.20;;;;;;6211489;23;20047;-78
2023/02/16 11:25:58;;;;;;;17.20;12.52;;;11.50;80.20;;;;;;6206696;23;20015;-78
2023/02/16 11:28:31;;;;;;;17.35;12.75;;;11.50;80.20;;;;;;6206670;23;20027;-80
2023/02/16 11:31:14;;;;;;;17.10;12.45;;;11.40;80.20;;;;;;6213601;23;20001;-80
2023/02/16 11:33:42;;;;;;;15.80;12.40;;;11.50;80.30;;;;;;6213072;23;20013;-80
2023/02/16 11:36:29;;;;;;;16.92;12.10;;;11.40;80.30;;;;;;6213584;23;20016;-80
2023/02/16 11:38:58;;;;;;;17.83;11.70;;;11.50;80.40;;;;;;6214389;23;20059;-79
2023/02/16 11:41:24;;;;;;;16.58;12.45;;;11.40;80.40;;;;;;6212872;23;20019;-80
2023/02/16 11:43:51;;;;;;;18.73;13.55;;;11.50;80.40;;;;;;6213332;23;20012;-80
2023/02/16 11:46:20;;;;;;;17.70;12.57;;;11.40;80.30;;;;;;6213804;23;20004;-80
2023/02/16 11:48:46;;;;;;;16.63;12.88;;;11.50;80.40;;;;;;6213487;23;20009;-80
2023/02/16 11:51:14;;;;;;;17.17;12.88;;;11.40;80.40;;;;;;6215414;23;20005;-80
2023/02/16 11:53:42;;;;;;;17.67;12.68;;;11.50;80.40;;;;;;6213344;23;20067;-80
2023/02/16 11:56:23;;;;;;;16.67;12.52;;;11.40;80.40;;;;;;6212838;23;20398;-80
2023/02/16 11:59:18;;;;;;;16.50;12.20;;;11.40;80.40;;;;;;6213178;23;20035;-80
2023/02/16 12:02:01;;;;;;;16.88;12.20;;;11.40;80.50;;;;;;6213052;23;20036;-79
2023/02/16 12:04:32;;;;;;;16.42;12.38;;;11.40;80.40;;;;;;6212363;23;20431;-79
2023/02/16 12:07:45;;;;;;;17.02;12.75;;;11.40;80.60;;;;;;6213388;23;20084;-79
2023/02/16 12:10:42;;;;;;;16.65;12.02;;;11.40;80.60;;;;;;6159014;23;20032;-79
2023/02/16 12:13:27;;;;;;;16.85;11.98;;;11.40;80.60;;;;;;5093837;27;1858444;-80
2023/02/16 12:16:05;;;;;;;17.67;12.60;;;11.40;80.50;;;;;;5132225;28;20093;-80
2023/02/16 12:18:53;;;;;;;15.63;11.93;;;11.50;80.60;;;;;;5130533;28;20081;-80
2023/02/16 12:21:38;;;;;;;16.42;12.02;;;11.40;80.50;;;;;;5111610;28;20025;-80
2023/02/16 12:24:04;;;;;;;16.45;11.75;;;11.40;80.50;;;;;;5112259;28;20049;-80
2023/02/16 12:26:43;;;;;;;16.30;12.98;;;11.40;80.50;;;;;;5111709;28;20022;-80
2023/02/16 12:29:26;;;;;;;17.25;12.15;;;11.40;80.60;;;;;;5112415;28;20019;-81
2023/02/16 12:32:12;;;;;;;16.83;12.10;;;11.40;80.80;;;;;;5130161;28;20392;-80
2023/02/16 12:35:04;;;;;;;15.70;11.60;;;11.40;80.70;;;;;;5129226;28;20524;-80
2023/02/16 12:37:55;;;;;;;17.50;12.77;;;11.40;80.60;;;;;;5110601;28;20031;-80
2023/02/16 12:40:45;;;;;;;16.38;12.18;;;11.40;80.70;;;;;;5129396;28;20024;-80
2023/02/16 12:43:31;;;;;;;18.58;12.05;;;11.40;80.60;;;;;;5110977;28;20015;-80
2023/02/16 12:46:03;;;;;;;17.48;12.00;;;11.50;80.60;;;;;;5110533;28;20027;-80
2023/02/16 12:48:56;;;;;;;16.63;11.48;;;11.50;80.70;;;;;;5110684;28;20073;-80
2023/02/16 12:51:32;;;;;;;14.82;11.13;;;11.40;80.60;;;;;;5128865;28;20031;-80
2023/02/16 12:54:04;;;;;;;16.33;11.90;;;11.40;80.70;;;;;;5110279;28;20391;-80
2023/02/16 12:56:40;;;;;;;16.10;11.57;;;11.40;80.70;;;;;;5110426;28;20425;-81
2023/02/16 12:59:22;;;;;;;15.68;12.20;;;11.40;80.80;;;;;;5128892;28;20041;-80
2023/02/16 13:01:53;;;;;;;15.82;12.13;;;11.40;80.80;;;;;;5120588;28;20038;-82
2023/02/16 13:04:30;;;;;;;16.00;12.02;;;11.40;80.80;;;;;;5139336;28;20157;-82
2023/02/16 13:07:14;;;;;;;17.15;12.20;;;11.40;80.80;;;;;;5119774;28;20027;-82
2023/02/16 13:10:03;;;;;;;14.27;11.10;;;11.40;80.90;;;;;;5119948;28;20020;-80
2023/02/16 13:12:40;;;;;;;16.00;11.93;;;11.40;80.90;;;;;;5120071;28;20039;-81
2023/02/16 13:15:17;;;;;;;16.45;11.75;;;11.40;81.00;;;;;;5119434;28;20023;-81
2023/02/16 13:17:51;;;;;;;16.17;11.27;;;11.40;81.10;;;;;;5137217;28;20020;-80
2023/02/16 13:20:20;;;;;;;16.23;11.77;;;11.40;81.10;;;;;;5118072;28;20027;-81
2023/02/16 13:23:01;;;;;;;16.25;12.10;;;11.40;81.10;;;;;;5133309;28;20020;-80
2023/02/16 13:25:59;;;;;;;16.40;11.30;;;11.30;81.10;;;;;;5103700;28;20024;-81
2023/02/16 13:29:01;;;;;;;16.38;12.10;;;11.30;81.10;;;;;;5103408;28;20032;-81
2023/02/16 13:32:04;;;;;;;14.27;10.90;;;11.30;81.20;;;;;;5103214;28;20031;-80
2023/02/16 13:35:05;;;;;;;14.90;11.50;;;11.30;81.20;;;;;;5122023;28;20039;-81